sensor_id;sensor_type;location;lat;lon;timestamp;P1;durP1;ratioP1;P2;durP2;ratioP2
6614;SDS011;3343;42.896;23.912;2022-10-31T00:01:46;2.80;;;1.63;;
6614;SDS011;3343;42.896;23.912;2022-10-31T00:04:13;3.20;;;1.77;;
6614;SDS011;3343;42.896;23.912;2022-10-31T00:06:40;3.00;;;1.93;;
6614;SDS011;3343;42.896;23.912;2022-10-31T00:09:09;2.57;;;1.77;;
6614;SDS011;3343;42.896;23.912;2022-10-31T00:11:36;1.87;;;1.67;;
6614;SDS011;3343;42.896;23.912;2022-10-31T00:14:02;2.50;;;1.57;;
6614;SDS011;3343;42.896;23.912;2022-10-31T00:16:31;4.67;;;1.80;;
6614;SDS011;3343;42.896;23.912;2022-10-31T00:18:59;2.17;;;1.40;;
6614;SDS011;3343;42.896;23.912;2022-10-31T00:21:27;1.90;;;1.60;;
6614;SDS011;3343;42.896;23.912;2022-10-31T00:23:56;2.90;;;1.80;;
6614;SDS011;3343;42.896;23.912;2022-10-31T00:26:24;8.13;;;1.90;;
6614;SDS011;3343;42.896;23.912;2022-10-31T00:28:52;1.57;;;1.40;;
6614;SDS011;3343;42.896;23.912;2022-10-31T00:31:19;2.70;;;2.00;;
6614;SDS011;3343;42.896;23.912;2022-10-31T00:33:47;3.03;;;1.90;;
6614;SDS011;3343;42.896;23.912;2022-10-31T00:36:15;4.93;;;1.80;;
6614;SDS011;3343;42.896;23.912;2022-10-31T00:38:43;1.80;;;1.47;;
6614;SDS011;3343;42.896;23.912;2022-10-31T00:41:12;4.50;;;1.70;;
6614;SDS011;3343;42.896;23.912;2022-10-31T00:43:40;1.80;;;1.53;;
6614;SDS011;3343;42.896;23.912;2022-10-31T00:46:07;2.07;;;1.60;;
6614;SDS011;3343;42.896;23.912;2022-10-31T00:48:34;2.53;;;1.57;;
6614;SDS011;3343;42.896;23.912;2022-10-31T00:51:02;1.77;;;1.50;;
6614;SDS011;3343;42.896;23.912;2022-10-31T00:53:30;2.40;;;1.63;;
6614;SDS011;3343;42.896;23.912;2022-10-31T00:55:57;2.10;;;1.77;;
6614;SDS011;3343;42.896;23.912;2022-10-31T00:58:24;2.87;;;1.80;;
6614;SDS011;3343;42.896;23.912;2022-10-31T01:00:51;4.57;;;1.83;;
6614;SDS011;3343;42.896;23.912;2022-10-31T01:03:20;3.30;;;2.03;;
6614;SDS011;3343;42.896;23.912;2022-10-31T01:05:55;2.60;;;1.90;;
6614;SDS011;3343;42.896;23.912;2022-10-31T01:08:24;1.60;;;1.50;;
6614;SDS011;3343;42.896;23.912;2022-10-31T01:10:58;2.73;;;1.80;;
6614;SDS011;3343;42.896;23.912;2022-10-31T01:13:30;3.33;;;1.90;;
6614;SDS011;3343;42.896;23.912;2022-10-31T01:15:58;3.47;;;2.03;;
6614;SDS011;3343;42.896;23.912;2022-10-31T01:18:26;2.67;;;1.90;;
6614;SDS011;3343;42.896;23.912;2022-10-31T01:20:57;3.40;;;1.40;;
6614;SDS011;3343;42.896;23.912;2022-10-31T01:23:27;2.10;;;1.80;;
6614;SDS011;3343;42.896;23.912;2022-10-31T01:26:02;2.33;;;1.63;;
6614;SDS011;3343;42.896;23.912;2022-10-31T01:28:31;2.17;;;1.80;;
6614;SDS011;3343;42.896;23.912;2022-10-31T01:31:02;3.50;;;1.80;;
6614;SDS011;3343;42.896;23.912;2022-10-31T01:33:30;2.07;;;1.60;;
6614;SDS011;3343;42.896;23.912;2022-10-31T01:35:57;2.10;;;1.63;;
6614;SDS011;3343;42.896;23.912;2022-10-31T01:38:24;2.17;;;1.63;;
6614;SDS011;3343;42.896;23.912;2022-10-31T01:40:52;3.03;;;1.83;;
6614;SDS011;3343;42.896;23.912;2022-10-31T01:43:19;3.13;;;1.97;;
6614;SDS011;3343;42.896;23.912;2022-10-31T01:45:48;2.80;;;1.93;;
6614;SDS011;3343;42.896;23.912;2022-10-31T01:48:19;4.47;;;2.00;;
6614;SDS011;3343;42.896;23.912;2022-10-31T01:50:56;2.87;;;2.10;;
6614;SDS011;3343;42.896;23.912;2022-10-31T01:53:23;3.43;;;2.10;;
6614;SDS011;3343;42.896;23.912;2022-10-31T01:55:50;4.47;;;2.37;;
6614;SDS011;3343;42.896;23.912;2022-10-31T01:58:20;10.63;;;2.00;;
6614;SDS011;3343;42.896;23.912;2022-10-31T02:00:51;3.73;;;2.77;;
6614;SDS011;3343;42.896;23.912;2022-10-31T02:03:22;2.53;;;2.33;;
6614;SDS011;3343;42.896;23.912;2022-10-31T02:05:50;2.77;;;2.40;;
6614;SDS011;3343;42.896;23.912;2022-10-31T02:08:20;3.70;;;2.80;;
6614;SDS011;3343;42.896;23.912;2022-10-31T02:10:52;4.73;;;3.23;;
6614;SDS011;3343;42.896;23.912;2022-10-31T02:13:21;4.33;;;3.23;;
6614;SDS011;3343;42.896;23.912;2022-10-31T02:15:51;4.33;;;3.27;;
6614;SDS011;3343;42.896;23.912;2022-10-31T02:18:19;9.03;;;3.77;;
6614;SDS011;3343;42.896;23.912;2022-10-31T02:20:50;6.03;;;3.33;;
6614;SDS011;3343;42.896;23.912;2022-10-31T02:23:33;4.20;;;3.77;;
6614;SDS011;3343;42.896;23.912;2022-10-31T02:26:31;7.73;;;4.27;;
6614;SDS011;3343;42.896;23.912;2022-10-31T02:29:27;7.10;;;3.90;;
6614;SDS011;3343;42.896;23.912;2022-10-31T02:32:09;4.47;;;3.43;;
6614;SDS011;3343;42.896;23.912;2022-10-31T02:34:47;4.77;;;3.27;;
6614;SDS011;3343;42.896;23.912;2022-10-31T02:37:22;7.37;;;3.20;;
6614;SDS011;3343;42.896;23.912;2022-10-31T02:39:59;5.70;;;4.03;;
6614;SDS011;3343;42.896;23.912;2022-10-31T02:42:38;5.73;;;3.50;;
6614;SDS011;3343;42.896;23.912;2022-10-31T02:45:14;8.80;;;3.87;;
6614;SDS011;3343;42.896;23.912;2022-10-31T02:47:51;6.60;;;3.83;;
6614;SDS011;3343;42.896;23.912;2022-10-31T02:50:25;5.30;;;3.40;;
6614;SDS011;3343;42.896;23.912;2022-10-31T02:52:54;4.67;;;3.47;;
6614;SDS011;3343;42.896;23.912;2022-10-31T02:58:20;9.40;;;3.53;;
6614;SDS011;3343;42.896;23.912;2022-10-31T03:00:54;4.27;;;3.20;;
6614;SDS011;3343;42.896;23.912;2022-10-31T03:03:39;5.73;;;3.33;;
6614;SDS011;3343;42.896;23.912;2022-10-31T03:06:16;3.70;;;3.07;;
6614;SDS011;3343;42.896;23.912;2022-10-31T03:08:50;6.27;;;3.40;;
6614;SDS011;3343;42.896;23.912;2022-10-31T03:11:23;4.97;;;3.20;;
6614;SDS011;3343;42.896;23.912;2022-10-31T03:13:56;13.47;;;3.00;;
6614;SDS011;3343;42.896;23.912;2022-10-31T03:16:27;5.23;;;3.20;;
6614;SDS011;3343;42.896;23.912;2022-10-31T03:19:08;7.07;;;2.90;;
6614;SDS011;3343;42.896;23.912;2022-10-31T03:21:39;4.93;;;3.07;;
6614;SDS011;3343;42.896;23.912;2022-10-31T03:24:11;4.43;;;2.80;;
6614;SDS011;3343;42.896;23.912;2022-10-31T03:26:41;4.53;;;3.17;;
6614;SDS011;3343;42.896;23.912;2022-10-31T03:29:11;5.77;;;3.40;;
6614;SDS011;3343;42.896;23.912;2022-10-31T03:31:43;4.40;;;2.83;;
6614;SDS011;3343;42.896;23.912;2022-10-31T03:34:15;4.20;;;3.30;;
6614;SDS011;3343;42.896;23.912;2022-10-31T03:36:44;7.03;;;3.30;;
6614;SDS011;3343;42.896;23.912;2022-10-31T03:39:14;4.50;;;2.80;;
6614;SDS011;3343;42.896;23.912;2022-10-31T03:41:45;4.13;;;2.80;;
6614;SDS011;3343;42.896;23.912;2022-10-31T03:44:20;6.17;;;2.93;;
6614;SDS011;3343;42.896;23.912;2022-10-31T03:46:50;5.07;;;2.83;;
6614;SDS011;3343;42.896;23.912;2022-10-31T03:49:19;6.70;;;2.60;;
6614;SDS011;3343;42.896;23.912;2022-10-31T03:51:47;6.87;;;2.70;;
6614;SDS011;3343;42.896;23.912;2022-10-31T03:54:23;3.53;;;2.83;;
6614;SDS011;3343;42.896;23.912;2022-10-31T03:56:55;5.13;;;3.30;;
6614;SDS011;3343;42.896;23.912;2022-10-31T03:59:27;4.30;;;2.40;;
6614;SDS011;3343;42.896;23.912;2022-10-31T04:02:01;3.73;;;2.50;;
6614;SDS011;3343;42.896;23.912;2022-10-31T04:04:34;3.17;;;2.60;;
6614;SDS011;3343;42.896;23.912;2022-10-31T04:07:03;4.50;;;2.17;;
6614;SDS011;3343;42.896;23.912;2022-10-31T04:09:32;3.90;;;2.40;;
6614;SDS011;3343;42.896;23.912;2022-10-31T04:12:03;3.87;;;2.60;;
6614;SDS011;3343;42.896;23.912;2022-10-31T04:14:34;2.67;;;2.07;;
6614;SDS011;3343;42.896;23.912;2022-10-31T04:17:05;4.20;;;2.60;;
6614;SDS011;3343;42.896;23.912;2022-10-31T04:19:37;4.37;;;2.23;;
6614;SDS011;3343;42.896;23.912;2022-10-31T04:22:04;5.47;;;2.37;;
6614;SDS011;3343;42.896;23.912;2022-10-31T04:24:31;4.50;;;2.43;;
6614;SDS011;3343;42.896;23.912;2022-10-31T04:26:58;3.43;;;2.10;;
6614;SDS011;3343;42.896;23.912;2022-10-31T04:29:25;10.90;;;2.80;;
6614;SDS011;3343;42.896;23.912;2022-10-31T04:31:51;4.77;;;1.83;;
6614;SDS011;3343;42.896;23.912;2022-10-31T04:34:18;2.93;;;2.03;;
6614;SDS011;3343;42.896;23.912;2022-10-31T04:36:46;3.13;;;1.80;;
6614;SDS011;3343;42.896;23.912;2022-10-31T04:39:13;4.30;;;1.90;;
6614;SDS011;3343;42.896;23.912;2022-10-31T04:41:40;5.27;;;2.20;;
6614;SDS011;3343;42.896;23.912;2022-10-31T04:44:07;3.57;;;2.10;;
6614;SDS011;3343;42.896;23.912;2022-10-31T04:46:34;4.27;;;1.90;;
6614;SDS011;3343;42.896;23.912;2022-10-31T04:49:01;5.47;;;2.23;;
6614;SDS011;3343;42.896;23.912;2022-10-31T04:51:28;4.37;;;2.03;;
6614;SDS011;3343;42.896;23.912;2022-10-31T04:53:56;8.77;;;2.43;;
6614;SDS011;3343;42.896;23.912;2022-10-31T04:56:23;4.87;;;2.63;;
6614;SDS011;3343;42.896;23.912;2022-10-31T04:58:50;4.77;;;2.73;;
6614;SDS011;3343;42.896;23.912;2022-10-31T05:01:17;2.90;;;2.00;;
6614;SDS011;3343;42.896;23.912;2022-10-31T05:03:44;3.80;;;2.47;;
6614;SDS011;3343;42.896;23.912;2022-10-31T05:06:11;3.47;;;1.97;;
6614;SDS011;3343;42.896;23.912;2022-10-31T05:08:37;3.53;;;2.23;;
6614;SDS011;3343;42.896;23.912;2022-10-31T05:11:06;3.37;;;2.20;;
6614;SDS011;3343;42.896;23.912;2022-10-31T05:13:33;3.50;;;2.00;;
6614;SDS011;3343;42.896;23.912;2022-10-31T05:15:59;4.23;;;2.20;;
6614;SDS011;3343;42.896;23.912;2022-10-31T05:18:26;3.40;;;2.23;;
6614;SDS011;3343;42.896;23.912;2022-10-31T05:20:53;2.40;;;1.97;;
6614;SDS011;3343;42.896;23.912;2022-10-31T05:23:20;3.40;;;1.93;;
6614;SDS011;3343;42.896;23.912;2022-10-31T05:25:47;2.27;;;1.97;;
6614;SDS011;3343;42.896;23.912;2022-10-31T05:28:15;9.37;;;2.63;;
6614;SDS011;3343;42.896;23.912;2022-10-31T05:30:42;6.13;;;1.93;;
6614;SDS011;3343;42.896;23.912;2022-10-31T05:33:09;6.60;;;2.63;;
6614;SDS011;3343;42.896;23.912;2022-10-31T05:35:36;3.33;;;1.90;;
6614;SDS011;3343;42.896;23.912;2022-10-31T05:38:03;4.13;;;2.50;;
6614;SDS011;3343;42.896;23.912;2022-10-31T05:40:29;3.17;;;2.30;;
6614;SDS011;3343;42.896;23.912;2022-10-31T05:42:56;6.33;;;2.40;;
6614;SDS011;3343;42.896;23.912;2022-10-31T05:45:25;3.13;;;1.83;;
6614;SDS011;3343;42.896;23.912;2022-10-31T05:47:53;6.23;;;2.20;;
6614;SDS011;3343;42.896;23.912;2022-10-31T05:50:21;3.47;;;2.67;;
6614;SDS011;3343;42.896;23.912;2022-10-31T05:52:53;3.30;;;2.67;;
6614;SDS011;3343;42.896;23.912;2022-10-31T05:55:22;2.43;;;2.00;;
6614;SDS011;3343;42.896;23.912;2022-10-31T05:57:48;5.57;;;2.60;;
6614;SDS011;3343;42.896;23.912;2022-10-31T06:00:15;9.87;;;2.70;;
6614;SDS011;3343;42.896;23.912;2022-10-31T06:02:44;4.73;;;2.13;;
6614;SDS011;3343;42.896;23.912;2022-10-31T06:05:11;4.53;;;2.33;;
6614;SDS011;3343;42.896;23.912;2022-10-31T06:07:38;4.87;;;2.50;;
6614;SDS011;3343;42.896;23.912;2022-10-31T06:10:05;2.90;;;2.30;;
6614;SDS011;3343;42.896;23.912;2022-10-31T06:12:34;5.33;;;2.47;;
6614;SDS011;3343;42.896;23.912;2022-10-31T06:15:03;6.57;;;2.53;;
6614;SDS011;3343;42.896;23.912;2022-10-31T06:17:31;3.53;;;2.13;;
6614;SDS011;3343;42.896;23.912;2022-10-31T06:20:00;13.67;;;2.97;;
6614;SDS011;3343;42.896;23.912;2022-10-31T06:22:27;3.30;;;2.30;;
6614;SDS011;3343;42.896;23.912;2022-10-31T06:24:54;8.67;;;3.37;;
6614;SDS011;3343;42.896;23.912;2022-10-31T06:27:21;7.03;;;2.90;;
6614;SDS011;3343;42.896;23.912;2022-10-31T06:29:47;11.03;;;3.83;;
6614;SDS011;3343;42.896;23.912;2022-10-31T06:32:14;11.90;;;5.13;;
6614;SDS011;3343;42.896;23.912;2022-10-31T06:34:42;9.37;;;4.60;;
6614;SDS011;3343;42.896;23.912;2022-10-31T06:37:11;9.20;;;6.30;;
6614;SDS011;3343;42.896;23.912;2022-10-31T06:39:38;5.77;;;3.70;;
6614;SDS011;3343;42.896;23.912;2022-10-31T06:42:05;8.60;;;4.03;;
6614;SDS011;3343;42.896;23.912;2022-10-31T06:44:32;8.23;;;3.17;;
6614;SDS011;3343;42.896;23.912;2022-10-31T06:46:59;5.28;;;3.45;;
6614;SDS011;3343;42.896;23.912;2022-10-31T06:49:26;4.40;;;2.75;;
6614;SDS011;3343;42.896;23.912;2022-10-31T06:51:53;3.85;;;2.55;;
6614;SDS011;3343;42.896;23.912;2022-10-31T06:54:21;3.97;;;2.47;;
6614;SDS011;3343;42.896;23.912;2022-10-31T06:56:48;4.82;;;2.75;;
6614;SDS011;3343;42.896;23.912;2022-10-31T06:59:15;7.03;;;2.85;;
6614;SDS011;3343;42.896;23.912;2022-10-31T07:01:43;4.60;;;2.53;;
6614;SDS011;3343;42.896;23.912;2022-10-31T07:04:09;6.75;;;3.03;;
6614;SDS011;3343;42.896;23.912;2022-10-31T07:06:37;5.05;;;2.97;;
6614;SDS011;3343;42.896;23.912;2022-10-31T07:09:04;4.80;;;3.53;;
6614;SDS011;3343;42.896;23.912;2022-10-31T07:11:32;5.53;;;3.60;;
6614;SDS011;3343;42.896;23.912;2022-10-31T07:13:59;5.30;;;3.08;;
6614;SDS011;3343;42.896;23.912;2022-10-31T07:16:26;5.03;;;3.47;;
6614;SDS011;3343;42.896;23.912;2022-10-31T07:18:53;8.95;;;5.00;;
6614;SDS011;3343;42.896;23.912;2022-10-31T07:21:20;6.50;;;3.25;;
6614;SDS011;3343;42.896;23.912;2022-10-31T07:23:47;5.15;;;3.58;;
6614;SDS011;3343;42.896;23.912;2022-10-31T07:26:14;5.10;;;3.38;;
6614;SDS011;3343;42.896;23.912;2022-10-31T07:28:43;5.57;;;3.15;;
6614;SDS011;3343;42.896;23.912;2022-10-31T07:31:10;7.07;;;3.05;;
6614;SDS011;3343;42.896;23.912;2022-10-31T07:33:36;4.47;;;3.05;;
6614;SDS011;3343;42.896;23.912;2022-10-31T07:36:03;4.15;;;2.85;;
6614;SDS011;3343;42.896;23.912;2022-10-31T07:38:31;4.95;;;3.30;;
6614;SDS011;3343;42.896;23.912;2022-10-31T07:40:58;3.47;;;2.80;;
6614;SDS011;3343;42.896;23.912;2022-10-31T07:43:24;4.20;;;3.10;;
6614;SDS011;3343;42.896;23.912;2022-10-31T07:45:53;6.40;;;2.85;;
6614;SDS011;3343;42.896;23.912;2022-10-31T07:48:20;5.82;;;3.10;;
6614;SDS011;3343;42.896;23.912;2022-10-31T07:50:48;4.03;;;2.58;;
6614;SDS011;3343;42.896;23.912;2022-10-31T07:53:15;5.68;;;3.88;;
6614;SDS011;3343;42.896;23.912;2022-10-31T07:55:42;4.78;;;3.58;;
6614;SDS011;3343;42.896;23.912;2022-10-31T07:58:10;7.20;;;3.63;;
6614;SDS011;3343;42.896;23.912;2022-10-31T08:00:38;7.00;;;4.10;;
6614;SDS011;3343;42.896;23.912;2022-10-31T08:03:08;6.22;;;3.72;;
6614;SDS011;3343;42.896;23.912;2022-10-31T08:05:36;5.90;;;3.05;;
6614;SDS011;3343;42.896;23.912;2022-10-31T08:08:03;5.43;;;3.17;;
6614;SDS011;3343;42.896;23.912;2022-10-31T08:10:31;4.22;;;2.97;;
6614;SDS011;3343;42.896;23.912;2022-10-31T08:13:00;7.32;;;3.25;;
6614;SDS011;3343;42.896;23.912;2022-10-31T08:15:28;4.38;;;3.47;;
6614;SDS011;3343;42.896;23.912;2022-10-31T08:17:55;8.63;;;3.40;;
6614;SDS011;3343;42.896;23.912;2022-10-31T08:20:23;7.65;;;3.10;;
6614;SDS011;3343;42.896;23.912;2022-10-31T08:22:54;5.15;;;3.20;;
6614;SDS011;3343;42.896;23.912;2022-10-31T08:25:22;4.82;;;3.40;;
6614;SDS011;3343;42.896;23.912;2022-10-31T08:27:50;7.35;;;3.40;;
6614;SDS011;3343;42.896;23.912;2022-10-31T08:30:18;7.35;;;3.63;;
6614;SDS011;3343;42.896;23.912;2022-10-31T08:32:45;7.13;;;3.58;;
6614;SDS011;3343;42.896;23.912;2022-10-31T08:35:12;4.65;;;3.20;;
6614;SDS011;3343;42.896;23.912;2022-10-31T08:37:41;5.57;;;3.50;;
6614;SDS011;3343;42.896;23.912;2022-10-31T08:40:08;5.95;;;3.42;;
6614;SDS011;3343;42.896;23.912;2022-10-31T08:42:38;7.47;;;3.88;;
6614;SDS011;3343;42.896;23.912;2022-10-31T08:45:05;15.63;;;3.80;;
6614;SDS011;3343;42.896;23.912;2022-10-31T08:47:32;11.00;;;4.38;;
6614;SDS011;3343;42.896;23.912;2022-10-31T08:49:59;6.30;;;3.05;;
6614;SDS011;3343;42.896;23.912;2022-10-31T08:52:26;4.68;;;2.40;;
6614;SDS011;3343;42.896;23.912;2022-10-31T08:54:54;7.53;;;3.15;;
6614;SDS011;3343;42.896;23.912;2022-10-31T08:57:21;5.65;;;2.80;;
6614;SDS011;3343;42.896;23.912;2022-10-31T08:59:48;4.53;;;2.08;;
6614;SDS011;3343;42.896;23.912;2022-10-31T09:02:15;6.25;;;2.58;;
6614;SDS011;3343;42.896;23.912;2022-10-31T09:04:42;4.70;;;2.50;;
6614;SDS011;3343;42.896;23.912;2022-10-31T09:07:09;6.82;;;2.50;;
6614;SDS011;3343;42.896;23.912;2022-10-31T09:09:35;3.33;;;1.70;;
6614;SDS011;3343;42.896;23.912;2022-10-31T09:12:04;4.72;;;1.55;;
6614;SDS011;3343;42.896;23.912;2022-10-31T09:14:31;3.10;;;1.70;;
6614;SDS011;3343;42.896;23.912;2022-10-31T09:16:58;2.60;;;1.75;;
6614;SDS011;3343;42.896;23.912;2022-10-31T09:19:25;5.32;;;1.80;;
6614;SDS011;3343;42.896;23.912;2022-10-31T09:21:52;6.53;;;2.72;;
6614;SDS011;3343;42.896;23.912;2022-10-31T09:24:20;3.97;;;1.70;;
6614;SDS011;3343;42.896;23.912;2022-10-31T09:26:46;1.70;;;1.60;;
6614;SDS011;3343;42.896;23.912;2022-10-31T09:29:15;3.25;;;2.00;;
6614;SDS011;3343;42.896;23.912;2022-10-31T09:31:42;5.75;;;2.42;;
6614;SDS011;3343;42.896;23.912;2022-10-31T09:34:08;3.58;;;2.10;;
6614;SDS011;3343;42.896;23.912;2022-10-31T09:36:36;4.93;;;2.03;;
6614;SDS011;3343;42.896;23.912;2022-10-31T09:39:03;5.18;;;2.08;;
6614;SDS011;3343;42.896;23.912;2022-10-31T09:41:32;3.50;;;2.20;;
6614;SDS011;3343;42.896;23.912;2022-10-31T09:44:11;2.28;;;1.80;;
6614;SDS011;3343;42.896;23.912;2022-10-31T09:46:49;3.28;;;1.88;;
6614;SDS011;3343;42.896;23.912;2022-10-31T09:49:33;4.25;;;1.67;;
6614;SDS011;3343;42.896;23.912;2022-10-31T09:52:09;3.97;;;2.03;;
6614;SDS011;3343;42.896;23.912;2022-10-31T09:54:43;4.38;;;1.88;;
6614;SDS011;3343;42.896;23.912;2022-10-31T09:57:14;2.55;;;1.83;;
6614;SDS011;3343;42.896;23.912;2022-10-31T09:59:46;2.05;;;1.70;;
6614;SDS011;3343;42.896;23.912;2022-10-31T10:02:16;6.63;;;2.17;;
6614;SDS011;3343;42.896;23.912;2022-10-31T10:04:48;2.75;;;1.73;;
6614;SDS011;3343;42.896;23.912;2022-10-31T10:07:24;3.75;;;2.00;;
6614;SDS011;3343;42.896;23.912;2022-10-31T10:09:59;3.08;;;1.55;;
6614;SDS011;3343;42.896;23.912;2022-10-31T10:12:33;2.65;;;1.58;;
6614;SDS011;3343;42.896;23.912;2022-10-31T10:15:29;7.80;;;1.63;;
6614;SDS011;3343;42.896;23.912;2022-10-31T10:18:08;6.90;;;2.05;;
6614;SDS011;3343;42.896;23.912;2022-10-31T10:20:47;2.35;;;1.73;;
6614;SDS011;3343;42.896;23.912;2022-10-31T10:23:31;5.38;;;2.30;;
6614;SDS011;3343;42.896;23.912;2022-10-31T10:26:06;2.60;;;1.63;;
6614;SDS011;3343;42.896;23.912;2022-10-31T10:28:43;7.45;;;2.03;;
6614;SDS011;3343;42.896;23.912;2022-10-31T10:31:16;3.97;;;1.98;;
6614;SDS011;3343;42.896;23.912;2022-10-31T10:33:47;2.40;;;1.58;;
6614;SDS011;3343;42.896;23.912;2022-10-31T10:36:26;2.33;;;1.70;;
6614;SDS011;3343;42.896;23.912;2022-10-31T10:38:58;2.50;;;1.70;;
6614;SDS011;3343;42.896;23.912;2022-10-31T10:41:29;4.18;;;2.00;;
6614;SDS011;3343;42.896;23.912;2022-10-31T10:43:58;2.58;;;1.75;;
6614;SDS011;3343;42.896;23.912;2022-10-31T10:46:27;2.00;;;1.77;;
6614;SDS011;3343;42.896;23.912;2022-10-31T10:49:18;4.00;;;1.73;;
6614;SDS011;3343;42.896;23.912;2022-10-31T10:51:50;3.80;;;1.48;;
6614;SDS011;3343;42.896;23.912;2022-10-31T10:54:35;1.80;;;1.50;;
6614;SDS011;3343;42.896;23.912;2022-10-31T10:57:31;3.35;;;1.55;;
6614;SDS011;3343;42.896;23.912;2022-10-31T11:00:12;1.63;;;1.33;;
6614;SDS011;3343;42.896;23.912;2022-10-31T11:02:45;2.65;;;1.40;;
6614;SDS011;3343;42.896;23.912;2022-10-31T11:05:13;2.33;;;1.67;;
6614;SDS011;3343;42.896;23.912;2022-10-31T11:07:45;4.47;;;1.45;;
6614;SDS011;3343;42.896;23.912;2022-10-31T11:10:12;2.08;;;1.77;;
6614;SDS011;3343;42.896;23.912;2022-10-31T11:12:41;3.28;;;1.80;;
6614;SDS011;3343;42.896;23.912;2022-10-31T11:15:16;3.05;;;1.90;;
6614;SDS011;3343;42.896;23.912;2022-10-31T11:17:49;3.28;;;1.77;;
6614;SDS011;3343;42.896;23.912;2022-10-31T11:20:24;2.50;;;1.80;;
6614;SDS011;3343;42.896;23.912;2022-10-31T11:23:10;3.17;;;1.60;;
6614;SDS011;3343;42.896;23.912;2022-10-31T11:25:50;1.60;;;1.27;;
6614;SDS011;3343;42.896;23.912;2022-10-31T11:28:19;5.22;;;1.70;;
6614;SDS011;3343;42.896;23.912;2022-10-31T11:30:46;4.00;;;1.80;;
6614;SDS011;3343;42.896;23.912;2022-10-31T11:33:21;2.35;;;1.75;;
6614;SDS011;3343;42.896;23.912;2022-10-31T11:35:51;2.78;;;1.70;;
6614;SDS011;3343;42.896;23.912;2022-10-31T11:38:20;6.53;;;1.75;;
6614;SDS011;3343;42.896;23.912;2022-10-31T11:40:56;1.70;;;1.35;;
6614;SDS011;3343;42.896;23.912;2022-10-31T11:43:25;3.63;;;1.60;;
6614;SDS011;3343;42.896;23.912;2022-10-31T11:45:52;3.17;;;1.67;;
6614;SDS011;3343;42.896;23.912;2022-10-31T11:48:21;1.85;;;1.42;;
6614;SDS011;3343;42.896;23.912;2022-10-31T11:50:51;3.08;;;1.52;;
6614;SDS011;3343;42.896;23.912;2022-10-31T11:53:23;6.13;;;1.95;;
6614;SDS011;3343;42.896;23.912;2022-10-31T11:56:04;3.83;;;1.42;;
6614;SDS011;3343;42.896;23.912;2022-10-31T11:58:32;4.55;;;1.60;;
6614;SDS011;3343;42.896;23.912;2022-10-31T12:00:59;5.55;;;2.17;;
6614;SDS011;3343;42.896;23.912;2022-10-31T12:03:29;3.35;;;2.08;;
6614;SDS011;3343;42.896;23.912;2022-10-31T12:06:05;2.38;;;1.60;;
6614;SDS011;3343;42.896;23.912;2022-10-31T12:08:37;1.75;;;1.38;;
6614;SDS011;3343;42.896;23.912;2022-10-31T12:11:09;2.35;;;1.52;;
6614;SDS011;3343;42.896;23.912;2022-10-31T12:13:48;3.17;;;1.42;;
6614;SDS011;3343;42.896;23.912;2022-10-31T12:16:24;2.65;;;1.80;;
6614;SDS011;3343;42.896;23.912;2022-10-31T12:19:00;1.80;;;1.35;;
6614;SDS011;3343;42.896;23.912;2022-10-31T12:21:37;2.95;;;1.60;;
6614;SDS011;3343;42.896;23.912;2022-10-31T12:24:25;4.50;;;1.30;;
6614;SDS011;3343;42.896;23.912;2022-10-31T12:27:05;3.25;;;1.83;;
6614;SDS011;3343;42.896;23.912;2022-10-31T12:29:57;6.20;;;1.48;;
6614;SDS011;3343;42.896;23.912;2022-10-31T12:32:36;2.42;;;1.38;;
6614;SDS011;3343;42.896;23.912;2022-10-31T12:35:25;3.08;;;1.75;;
6614;SDS011;3343;42.896;23.912;2022-10-31T12:38:06;5.80;;;2.45;;
6614;SDS011;3343;42.896;23.912;2022-10-31T12:40:53;6.53;;;2.08;;
6614;SDS011;3343;42.896;23.912;2022-10-31T12:43:45;3.67;;;1.38;;
6614;SDS011;3343;42.896;23.912;2022-10-31T12:46:18;1.83;;;1.38;;
6614;SDS011;3343;42.896;23.912;2022-10-31T12:49:03;2.75;;;1.67;;
6614;SDS011;3343;42.896;23.912;2022-10-31T12:51:44;5.43;;;1.60;;
6614;SDS011;3343;42.896;23.912;2022-10-31T12:54:29;2.63;;;1.85;;
6614;SDS011;3343;42.896;23.912;2022-10-31T12:57:13;2.30;;;1.60;;
6614;SDS011;3343;42.896;23.912;2022-10-31T12:59:49;4.47;;;1.90;;
6614;SDS011;3343;42.896;23.912;2022-10-31T13:02:20;3.63;;;1.60;;
6614;SDS011;3343;42.896;23.912;2022-10-31T13:04:54;1.95;;;1.40;;
6614;SDS011;3343;42.896;23.912;2022-10-31T13:07:27;3.75;;;1.67;;
6614;SDS011;3343;42.896;23.912;2022-10-31T13:09:59;6.32;;;1.60;;
6614;SDS011;3343;42.896;23.912;2022-10-31T13:12:30;3.63;;;1.70;;
6614;SDS011;3343;42.896;23.912;2022-10-31T13:15:03;2.83;;;1.40;;
6614;SDS011;3343;42.896;23.912;2022-10-31T13:17:38;1.35;;;1.20;;
6614;SDS011;3343;42.896;23.912;2022-10-31T13:20:13;3.22;;;1.80;;
6614;SDS011;3343;42.896;23.912;2022-10-31T13:22:48;6.03;;;1.90;;
6614;SDS011;3343;42.896;23.912;2022-10-31T13:25:18;3.70;;;1.42;;
6614;SDS011;3343;42.896;23.912;2022-10-31T13:27:51;2.75;;;1.50;;
6614;SDS011;3343;42.896;23.912;2022-10-31T13:30:22;2.35;;;1.55;;
6614;SDS011;3343;42.896;23.912;2022-10-31T13:32:52;15.30;;;2.75;;
6614;SDS011;3343;42.896;23.912;2022-10-31T13:35:26;6.30;;;1.58;;
6614;SDS011;3343;42.896;23.912;2022-10-31T13:38:05;2.28;;;1.58;;
6614;SDS011;3343;42.896;23.912;2022-10-31T13:40:42;4.70;;;1.38;;
6614;SDS011;3343;42.896;23.912;2022-10-31T13:43:19;4.78;;;1.27;;
6614;SDS011;3343;42.896;23.912;2022-10-31T13:45:53;2.78;;;1.50;;
6614;SDS011;3343;42.896;23.912;2022-10-31T13:48:35;3.53;;;1.30;;
6614;SDS011;3343;42.896;23.912;2022-10-31T13:51:07;1.80;;;1.45;;
6614;SDS011;3343;42.896;23.912;2022-10-31T13:53:37;6.10;;;1.50;;
6614;SDS011;3343;42.896;23.912;2022-10-31T13:56:14;7.63;;;2.05;;
6614;SDS011;3343;42.896;23.912;2022-10-31T13:58:54;3.22;;;1.70;;
6614;SDS011;3343;42.896;23.912;2022-10-31T14:01:24;2.45;;;1.60;;
6614;SDS011;3343;42.896;23.912;2022-10-31T14:03:59;9.30;;;2.22;;
6614;SDS011;3343;42.896;23.912;2022-10-31T14:06:36;3.47;;;1.15;;
6614;SDS011;3343;42.896;23.912;2022-10-31T14:09:14;3.45;;;1.60;;
6614;SDS011;3343;42.896;23.912;2022-10-31T14:11:45;3.13;;;1.40;;
6614;SDS011;3343;42.896;23.912;2022-10-31T14:14:14;4.70;;;1.60;;
6614;SDS011;3343;42.896;23.912;2022-10-31T14:16:42;4.35;;;1.60;;
6614;SDS011;3343;42.896;23.912;2022-10-31T14:19:15;2.85;;;1.60;;
6614;SDS011;3343;42.896;23.912;2022-10-31T14:21:44;3.10;;;1.50;;
6614;SDS011;3343;42.896;23.912;2022-10-31T14:24:30;5.35;;;1.60;;
6614;SDS011;3343;42.896;23.912;2022-10-31T14:27:00;5.85;;;1.55;;
6614;SDS011;3343;42.896;23.912;2022-10-31T14:29:29;2.55;;;1.60;;
6614;SDS011;3343;42.896;23.912;2022-10-31T14:32:01;8.27;;;1.55;;
6614;SDS011;3343;42.896;23.912;2022-10-31T14:34:37;1.95;;;1.60;;
6614;SDS011;3343;42.896;23.912;2022-10-31T14:40:22;5.30;;;1.60;;
6614;SDS011;3343;42.896;23.912;2022-10-31T14:43:07;3.53;;;1.90;;
6614;SDS011;3343;42.896;23.912;2022-10-31T14:45:59;4.90;;;2.20;;
6614;SDS011;3343;42.896;23.912;2022-10-31T14:48:41;2.22;;;1.58;;
6614;SDS011;3343;42.896;23.912;2022-10-31T14:51:25;1.95;;;1.30;;
6614;SDS011;3343;42.896;23.912;2022-10-31T14:53:56;3.15;;;1.75;;
6614;SDS011;3343;42.896;23.912;2022-10-31T14:56:28;4.05;;;1.58;;
6614;SDS011;3343;42.896;23.912;2022-10-31T14:58:58;3.92;;;1.35;;
6614;SDS011;3343;42.896;23.912;2022-10-31T15:01:28;2.05;;;1.52;;
6614;SDS011;3343;42.896;23.912;2022-10-31T15:03:57;3.15;;;1.67;;
6614;SDS011;3343;42.896;23.912;2022-10-31T15:06:30;6.43;;;1.80;;
6614;SDS011;3343;42.896;23.912;2022-10-31T15:09:05;3.13;;;1.48;;
6614;SDS011;3343;42.896;23.912;2022-10-31T15:11:36;3.40;;;1.75;;
6614;SDS011;3343;42.896;23.912;2022-10-31T15:14:05;3.22;;;1.70;;
6614;SDS011;3343;42.896;23.912;2022-10-31T15:16:48;3.70;;;1.55;;
6614;SDS011;3343;42.896;23.912;2022-10-31T15:19:17;3.95;;;2.53;;
6614;SDS011;3343;42.896;23.912;2022-10-31T15:21:49;5.43;;;1.85;;
6614;SDS011;3343;42.896;23.912;2022-10-31T15:24:17;4.38;;;2.45;;
6614;SDS011;3343;42.896;23.912;2022-10-31T15:26:47;6.70;;;2.60;;
6614;SDS011;3343;42.896;23.912;2022-10-31T15:29:16;3.50;;;2.23;;
6614;SDS011;3343;42.896;23.912;2022-10-31T15:31:49;3.50;;;2.23;;